Lovelace, Texas
Current Conditions -  °F | °C
As of 2:50 AM on Wednesday 22 Oct 2014 (Local Time) from KINJ Reporting Station
Clear Clear  
Wind Chill: 65°   Ceiling: Unl
Heat Index: 65°   Visibility: 10mi
Dew Point: 58°   Wind: 7mph
Humidity: 77%   Direction: 110°ESE
Pressure: 30.08"   Gusts: NA
Location:  32.0499°N, 97.1039°W
Report Text: KINJ 220750Z AUTO 11006KT 10SM CLR 19/15 A3008 RMK AO2 T01860145
Loading
Personal Weather Stations






























Interactive Weather Map
Tropical Storm Tracking
New forecast layout! Learn more

10-Day Weather Forecast

Advertisements
Track Severe Weather on mobile